sensor_id;sensor_type;location;lat;lon;timestamp;P1;durP1;ratioP1;P2;durP2;ratioP2
64562;SDS011;50961;48.184;11.636;2022-07-23T00:01:58;14.63;;;10.32;;
64562;SDS011;50961;48.184;11.636;2022-07-23T00:04:23;13.93;;;9.85;;
64562;SDS011;50961;48.184;11.636;2022-07-23T00:06:49;15.70;;;10.18;;
64562;SDS011;50961;48.184;11.636;2022-07-23T00:09:14;14.65;;;10.30;;
64562;SDS011;50961;48.184;11.636;2022-07-23T00:11:39;15.07;;;10.10;;
64562;SDS011;50961;48.184;11.636;2022-07-23T00:14:05;14.40;;;10.13;;
64562;SDS011;50961;48.184;11.636;2022-07-23T00:16:31;13.23;;;9.52;;
64562;SDS011;50961;48.184;11.636;2022-07-23T00:18:56;15.35;;;10.27;;
64562;SDS011;50961;48.184;11.636;2022-07-23T00:21:22;13.98;;;9.57;;
64562;SDS011;50961;48.184;11.636;2022-07-23T00:23:47;13.20;;;9.43;;
64562;SDS011;50961;48.184;11.636;2022-07-23T00:26:12;14.98;;;10.00;;
64562;SDS011;50961;48.184;11.636;2022-07-23T00:28:38;13.15;;;9.40;;
64562;SDS011;50961;48.184;11.636;2022-07-23T00:31:03;12.40;;;9.07;;
64562;SDS011;50961;48.184;11.636;2022-07-23T00:33:29;12.27;;;8.73;;
64562;SDS011;50961;48.184;11.636;2022-07-23T00:35:54;13.18;;;8.65;;
64562;SDS011;50961;48.184;11.636;2022-07-23T00:38:19;13.13;;;9.10;;
64562;SDS011;50961;48.184;11.636;2022-07-23T00:40:45;12.60;;;8.90;;
64562;SDS011;50961;48.184;11.636;2022-07-23T00:43:10;12.57;;;8.40;;
64562;SDS011;50961;48.184;11.636;2022-07-23T00:45:36;13.95;;;9.27;;
64562;SDS011;50961;48.184;11.636;2022-07-23T00:48:01;11.60;;;8.45;;
64562;SDS011;50961;48.184;11.636;2022-07-23T00:50:27;13.48;;;8.85;;
64562;SDS011;50961;48.184;11.636;2022-07-23T00:52:53;14.02;;;9.27;;
64562;SDS011;50961;48.184;11.636;2022-07-23T00:55:18;14.32;;;9.70;;
64562;SDS011;50961;48.184;11.636;2022-07-23T00:57:44;12.55;;;8.93;;
64562;SDS011;50961;48.184;11.636;2022-07-23T01:00:10;15.80;;;8.85;;
64562;SDS011;50961;48.184;11.636;2022-07-23T01:02:38;12.43;;;8.93;;
64562;SDS011;50961;48.184;11.636;2022-07-23T01:05:04;12.48;;;9.50;;
64562;SDS011;50961;48.184;11.636;2022-07-23T01:07:30;16.33;;;10.05;;
64562;SDS011;50961;48.184;11.636;2022-07-23T01:09:55;16.05;;;9.65;;
64562;SDS011;50961;48.184;11.636;2022-07-23T01:12:21;15.30;;;9.13;;
64562;SDS011;50961;48.184;11.636;2022-07-23T01:14:56;12.27;;;9.00;;
64562;SDS011;50961;48.184;11.636;2022-07-23T01:17:22;13.07;;;8.50;;
64562;SDS011;50961;48.184;11.636;2022-07-23T01:19:48;14.98;;;9.65;;
64562;SDS011;50961;48.184;11.636;2022-07-23T01:22:13;17.13;;;11.02;;
64562;SDS011;50961;48.184;11.636;2022-07-23T01:24:42;21.38;;;12.63;;
64562;SDS011;50961;48.184;11.636;2022-07-23T01:27:08;21.10;;;12.10;;
64562;SDS011;50961;48.184;11.636;2022-07-23T01:29:33;16.42;;;12.40;;
64562;SDS011;50961;48.184;11.636;2022-07-23T01:31:59;19.55;;;12.30;;
64562;SDS011;50961;48.184;11.636;2022-07-23T01:34:24;27.35;;;12.27;;
64562;SDS011;50961;48.184;11.636;2022-07-23T01:36:49;19.17;;;10.93;;
64562;SDS011;50961;48.184;11.636;2022-07-23T01:39:15;24.92;;;11.25;;
64562;SDS011;50961;48.184;11.636;2022-07-23T01:41:40;21.17;;;10.50;;
64562;SDS011;50961;48.184;11.636;2022-07-23T01:44:06;23.30;;;10.07;;
64562;SDS011;50961;48.184;11.636;2022-07-23T01:46:31;18.30;;;10.10;;
64562;SDS011;50961;48.184;11.636;2022-07-23T01:48:56;20.85;;;9.98;;
64562;SDS011;50961;48.184;11.636;2022-07-23T01:51:22;23.08;;;9.60;;
64562;SDS011;50961;48.184;11.636;2022-07-23T01:53:47;16.23;;;8.73;;
64562;SDS011;50961;48.184;11.636;2022-07-23T01:56:12;11.23;;;7.18;;
64562;SDS011;50961;48.184;11.636;2022-07-23T01:58:40;13.30;;;7.25;;
64562;SDS011;50961;48.184;11.636;2022-07-23T02:01:05;10.88;;;7.10;;
64562;SDS011;50961;48.184;11.636;2022-07-23T02:03:30;11.23;;;7.20;;
64562;SDS011;50961;48.184;11.636;2022-07-23T02:05:56;12.80;;;6.72;;
64562;SDS011;50961;48.184;11.636;2022-07-23T02:08:21;15.63;;;7.57;;
64562;SDS011;50961;48.184;11.636;2022-07-23T02:10:47;13.10;;;7.38;;
64562;SDS011;50961;48.184;11.636;2022-07-23T02:13:13;11.68;;;7.13;;
64562;SDS011;50961;48.184;11.636;2022-07-23T02:15:38;12.75;;;7.38;;
64562;SDS011;50961;48.184;11.636;2022-07-23T02:18:04;13.07;;;7.47;;
64562;SDS011;50961;48.184;11.636;2022-07-23T02:20:29;11.68;;;7.32;;
64562;SDS011;50961;48.184;11.636;2022-07-23T02:22:55;14.05;;;7.65;;
64562;SDS011;50961;48.184;11.636;2022-07-23T02:25:20;11.85;;;6.90;;
64562;SDS011;50961;48.184;11.636;2022-07-23T02:27:46;13.27;;;6.22;;
64562;SDS011;50961;48.184;11.636;2022-07-23T02:30:11;11.63;;;6.50;;
64562;SDS011;50961;48.184;11.636;2022-07-23T02:32:37;14.10;;;7.80;;
64562;SDS011;50961;48.184;11.636;2022-07-23T02:35:04;12.68;;;6.60;;
64562;SDS011;50961;48.184;11.636;2022-07-23T02:37:30;12.95;;;6.95;;
64562;SDS011;50961;48.184;11.636;2022-07-23T02:39:55;10.80;;;6.53;;
64562;SDS011;50961;48.184;11.636;2022-07-23T02:42:21;11.90;;;6.32;;
64562;SDS011;50961;48.184;11.636;2022-07-23T02:44:46;11.02;;;5.22;;
64562;SDS011;50961;48.184;11.636;2022-07-23T02:47:12;9.70;;;5.30;;
64562;SDS011;50961;48.184;11.636;2022-07-23T02:49:37;10.30;;;5.55;;
64562;SDS011;50961;48.184;11.636;2022-07-23T02:52:02;10.70;;;5.07;;
64562;SDS011;50961;48.184;11.636;2022-07-23T02:54:28;9.00;;;5.30;;
64562;SDS011;50961;48.184;11.636;2022-07-23T02:56:53;10.93;;;5.28;;
64562;SDS011;50961;48.184;11.636;2022-07-23T02:59:19;10.65;;;5.28;;
64562;SDS011;50961;48.184;11.636;2022-07-23T03:01:44;9.90;;;5.43;;
64562;SDS011;50961;48.184;11.636;2022-07-23T03:04:10;8.80;;;5.45;;
64562;SDS011;50961;48.184;11.636;2022-07-23T03:06:36;11.50;;;5.90;;
64562;SDS011;50961;48.184;11.636;2022-07-23T03:09:02;11.27;;;6.20;;
64562;SDS011;50961;48.184;11.636;2022-07-23T03:11:28;12.10;;;6.55;;
64562;SDS011;50961;48.184;11.636;2022-07-23T03:13:53;13.27;;;7.30;;
64562;SDS011;50961;48.184;11.636;2022-07-23T03:16:19;12.68;;;6.90;;
64562;SDS011;50961;48.184;11.636;2022-07-23T03:18:44;14.82;;;6.68;;
64562;SDS011;50961;48.184;11.636;2022-07-23T03:21:09;11.75;;;6.40;;
64562;SDS011;50961;48.184;11.636;2022-07-23T03:23:35;12.50;;;6.78;;
64562;SDS011;50961;48.184;11.636;2022-07-23T03:26:00;13.38;;;6.60;;
64562;SDS011;50961;48.184;11.636;2022-07-23T03:28:25;15.48;;;6.82;;
64562;SDS011;50961;48.184;11.636;2022-07-23T03:30:51;15.77;;;7.07;;
64562;SDS011;50961;48.184;11.636;2022-07-23T03:33:17;12.32;;;6.90;;
64562;SDS011;50961;48.184;11.636;2022-07-23T03:35:43;13.35;;;7.05;;
64562;SDS011;50961;48.184;11.636;2022-07-23T03:38:09;11.25;;;6.60;;
64562;SDS011;50961;48.184;11.636;2022-07-23T03:40:35;14.25;;;6.97;;
64562;SDS011;50961;48.184;11.636;2022-07-23T03:43:00;12.70;;;7.43;;
64562;SDS011;50961;48.184;11.636;2022-07-23T03:45:26;19.02;;;8.60;;
64562;SDS011;50961;48.184;11.636;2022-07-23T03:47:51;12.30;;;7.20;;
64562;SDS011;50961;48.184;11.636;2022-07-23T03:50:17;15.95;;;8.07;;
64562;SDS011;50961;48.184;11.636;2022-07-23T03:52:42;14.60;;;7.60;;
64562;SDS011;50961;48.184;11.636;2022-07-23T03:55:08;13.30;;;7.60;;
64562;SDS011;50961;48.184;11.636;2022-07-23T03:57:33;16.27;;;8.10;;
64562;SDS011;50961;48.184;11.636;2022-07-23T03:59:59;15.55;;;8.63;;
64562;SDS011;50961;48.184;11.636;2022-07-23T04:02:24;14.43;;;8.30;;
64562;SDS011;50961;48.184;11.636;2022-07-23T04:04:50;14.55;;;8.07;;
64562;SDS011;50961;48.184;11.636;2022-07-23T04:07:15;17.10;;;9.07;;
64562;SDS011;50961;48.184;11.636;2022-07-23T04:09:42;22.33;;;10.40;;
64562;SDS011;50961;48.184;11.636;2022-07-23T04:12:08;18.08;;;9.00;;
64562;SDS011;50961;48.184;11.636;2022-07-23T04:14:34;18.60;;;9.30;;
64562;SDS011;50961;48.184;11.636;2022-07-23T04:16:59;31.10;;;10.70;;
64562;SDS011;50961;48.184;11.636;2022-07-23T04:19:25;15.68;;;9.02;;
64562;SDS011;50961;48.184;11.636;2022-07-23T04:21:51;19.15;;;9.85;;
64562;SDS011;50961;48.184;11.636;2022-07-23T04:24:16;21.70;;;9.90;;
64562;SDS011;50961;48.184;11.636;2022-07-23T04:26:41;18.98;;;10.73;;
64562;SDS011;50961;48.184;11.636;2022-07-23T04:29:07;19.80;;;10.38;;
64562;SDS011;50961;48.184;11.636;2022-07-23T04:31:32;20.67;;;9.93;;
64562;SDS011;50961;48.184;11.636;2022-07-23T04:33:57;19.63;;;10.70;;
64562;SDS011;50961;48.184;11.636;2022-07-23T04:36:23;20.67;;;10.50;;
64562;SDS011;50961;48.184;11.636;2022-07-23T04:38:48;18.73;;;10.10;;
64562;SDS011;50961;48.184;11.636;2022-07-23T04:41:13;21.30;;;10.77;;
64562;SDS011;50961;48.184;11.636;2022-07-23T04:43:39;21.50;;;10.52;;
64562;SDS011;50961;48.184;11.636;2022-07-23T04:46:04;20.95;;;10.55;;
64562;SDS011;50961;48.184;11.636;2022-07-23T04:48:30;23.42;;;10.68;;
64562;SDS011;50961;48.184;11.636;2022-07-23T04:50:56;20.17;;;10.27;;
64562;SDS011;50961;48.184;11.636;2022-07-23T04:53:21;20.13;;;10.63;;
64562;SDS011;50961;48.184;11.636;2022-07-23T04:55:47;20.33;;;11.00;;
64562;SDS011;50961;48.184;11.636;2022-07-23T04:58:12;19.67;;;10.52;;
64562;SDS011;50961;48.184;11.636;2022-07-23T05:00:37;18.33;;;10.52;;
64562;SDS011;50961;48.184;11.636;2022-07-23T05:03:03;19.88;;;11.20;;
64562;SDS011;50961;48.184;11.636;2022-07-23T05:05:28;20.48;;;10.80;;
64562;SDS011;50961;48.184;11.636;2022-07-23T05:07:54;20.08;;;11.13;;
64562;SDS011;50961;48.184;11.636;2022-07-23T05:10:19;22.40;;;12.02;;
64562;SDS011;50961;48.184;11.636;2022-07-23T05:12:45;22.35;;;12.18;;
64562;SDS011;50961;48.184;11.636;2022-07-23T05:15:10;21.25;;;12.25;;
64562;SDS011;50961;48.184;11.636;2022-07-23T05:17:36;25.83;;;12.00;;
64562;SDS011;50961;48.184;11.636;2022-07-23T05:20:01;22.42;;;11.80;;
64562;SDS011;50961;48.184;11.636;2022-07-23T05:22:27;23.10;;;12.23;;
64562;SDS011;50961;48.184;11.636;2022-07-23T05:24:53;19.95;;;11.77;;
64562;SDS011;50961;48.184;11.636;2022-07-23T05:27:18;21.63;;;11.63;;
64562;SDS011;50961;48.184;11.636;2022-07-23T05:29:44;24.77;;;12.68;;
64562;SDS011;50961;48.184;11.636;2022-07-23T05:32:09;27.50;;;12.18;;
64562;SDS011;50961;48.184;11.636;2022-07-23T05:34:35;22.30;;;12.02;;
64562;SDS011;50961;48.184;11.636;2022-07-23T05:37:00;20.20;;;11.63;;
64562;SDS011;50961;48.184;11.636;2022-07-23T05:39:25;22.15;;;11.60;;
64562;SDS011;50961;48.184;11.636;2022-07-23T05:41:51;25.27;;;12.40;;
64562;SDS011;50961;48.184;11.636;2022-07-23T05:44:16;22.77;;;11.88;;
64562;SDS011;50961;48.184;11.636;2022-07-23T05:46:42;28.48;;;13.05;;
64562;SDS011;50961;48.184;11.636;2022-07-23T05:49:07;24.13;;;12.38;;
64562;SDS011;50961;48.184;11.636;2022-07-23T05:51:33;26.60;;;12.70;;
64562;SDS011;50961;48.184;11.636;2022-07-23T05:53:58;25.50;;;12.48;;
64562;SDS011;50961;48.184;11.636;2022-07-23T05:56:23;21.65;;;12.20;;
64562;SDS011;50961;48.184;11.636;2022-07-23T05:58:49;23.30;;;13.63;;
64562;SDS011;50961;48.184;11.636;2022-07-23T06:01:14;22.58;;;13.02;;
64562;SDS011;50961;48.184;11.636;2022-07-23T06:03:40;21.85;;;12.85;;
64562;SDS011;50961;48.184;11.636;2022-07-23T06:06:05;24.00;;;12.85;;
64562;SDS011;50961;48.184;11.636;2022-07-23T06:08:31;22.95;;;13.48;;
64562;SDS011;50961;48.184;11.636;2022-07-23T06:10:56;23.52;;;12.75;;
64562;SDS011;50961;48.184;11.636;2022-07-23T06:13:22;21.83;;;12.90;;
64562;SDS011;50961;48.184;11.636;2022-07-23T06:15:47;23.75;;;13.60;;
64562;SDS011;50961;48.184;11.636;2022-07-23T06:18:13;24.75;;;13.18;;
64562;SDS011;50961;48.184;11.636;2022-07-23T06:20:38;24.98;;;13.13;;
64562;SDS011;50961;48.184;11.636;2022-07-23T06:23:04;23.27;;;12.73;;
64562;SDS011;50961;48.184;11.636;2022-07-23T06:25:29;26.88;;;13.75;;
64562;SDS011;50961;48.184;11.636;2022-07-23T06:27:55;29.05;;;13.70;;
64562;SDS011;50961;48.184;11.636;2022-07-23T06:30:20;26.27;;;14.07;;
64562;SDS011;50961;48.184;11.636;2022-07-23T06:32:46;21.40;;;12.50;;
64562;SDS011;50961;48.184;11.636;2022-07-23T06:35:12;23.75;;;13.75;;
64562;SDS011;50961;48.184;11.636;2022-07-23T06:37:37;23.23;;;13.18;;
64562;SDS011;50961;48.184;11.636;2022-07-23T06:40:03;23.98;;;13.55;;
64562;SDS011;50961;48.184;11.636;2022-07-23T06:42:29;26.33;;;13.80;;
64562;SDS011;50961;48.184;11.636;2022-07-23T06:44:54;25.15;;;13.80;;
64562;SDS011;50961;48.184;11.636;2022-07-23T06:47:20;25.55;;;12.65;;
64562;SDS011;50961;48.184;11.636;2022-07-23T06:49:45;22.55;;;13.40;;
64562;SDS011;50961;48.184;11.636;2022-07-23T06:52:10;26.77;;;13.70;;
64562;SDS011;50961;48.184;11.636;2022-07-23T06:54:36;23.80;;;14.10;;
64562;SDS011;50961;48.184;11.636;2022-07-23T06:57:01;21.52;;;12.40;;
64562;SDS011;50961;48.184;11.636;2022-07-23T06:59:26;23.10;;;13.68;;
64562;SDS011;50961;48.184;11.636;2022-07-23T07:01:52;23.25;;;12.63;;
64562;SDS011;50961;48.184;11.636;2022-07-23T07:04:17;22.45;;;13.05;;
64562;SDS011;50961;48.184;11.636;2022-07-23T07:06:43;24.33;;;13.93;;
64562;SDS011;50961;48.184;11.636;2022-07-23T07:09:08;23.27;;;13.68;;
64562;SDS011;50961;48.184;11.636;2022-07-23T07:11:34;27.85;;;13.90;;
64562;SDS011;50961;48.184;11.636;2022-07-23T07:13:59;24.65;;;13.40;;
64562;SDS011;50961;48.184;11.636;2022-07-23T07:16:25;23.40;;;13.10;;
64562;SDS011;50961;48.184;11.636;2022-07-23T07:18:50;21.30;;;12.93;;
64562;SDS011;50961;48.184;11.636;2022-07-23T07:21:15;23.50;;;13.20;;
64562;SDS011;50961;48.184;11.636;2022-07-23T07:23:41;26.58;;;13.55;;
64562;SDS011;50961;48.184;11.636;2022-07-23T07:26:06;25.48;;;12.82;;
64562;SDS011;50961;48.184;11.636;2022-07-23T07:28:32;23.63;;;13.30;;
64562;SDS011;50961;48.184;11.636;2022-07-23T07:30:57;24.02;;;13.73;;
64562;SDS011;50961;48.184;11.636;2022-07-23T07:33:22;22.42;;;13.52;;
64562;SDS011;50961;48.184;11.636;2022-07-23T07:35:48;26.08;;;14.20;;
64562;SDS011;50961;48.184;11.636;2022-07-23T07:38:13;27.33;;;13.90;;
64562;SDS011;50961;48.184;11.636;2022-07-23T07:40:39;23.08;;;13.57;;
64562;SDS011;50961;48.184;11.636;2022-07-23T07:43:04;24.77;;;14.30;;
64562;SDS011;50961;48.184;11.636;2022-07-23T07:45:30;27.83;;;13.98;;
64562;SDS011;50961;48.184;11.636;2022-07-23T07:47:55;28.48;;;15.63;;
64562;SDS011;50961;48.184;11.636;2022-07-23T07:50:21;31.92;;;15.07;;
64562;SDS011;50961;48.184;11.636;2022-07-23T07:52:47;24.98;;;14.50;;
64562;SDS011;50961;48.184;11.636;2022-07-23T07:55:12;22.88;;;13.98;;
64562;SDS011;50961;48.184;11.636;2022-07-23T07:57:38;27.25;;;14.80;;
64562;SDS011;50961;48.184;11.636;2022-07-23T08:00:05;27.05;;;14.30;;
64562;SDS011;50961;48.184;11.636;2022-07-23T08:02:46;27.52;;;15.02;;
64562;SDS011;50961;48.184;11.636;2022-07-23T08:05:13;28.98;;;14.95;;
64562;SDS011;50961;48.184;11.636;2022-07-23T08:07:39;28.27;;;14.27;;
64562;SDS011;50961;48.184;11.636;2022-07-23T08:10:06;26.00;;;14.90;;
64562;SDS011;50961;48.184;11.636;2022-07-23T08:12:40;27.20;;;14.38;;
64562;SDS011;50961;48.184;11.636;2022-07-23T08:15:06;27.10;;;14.95;;
64562;SDS011;50961;48.184;11.636;2022-07-23T08:17:32;24.55;;;15.02;;
64562;SDS011;50961;48.184;11.636;2022-07-23T08:19:58;26.85;;;14.68;;
64562;SDS011;50961;48.184;11.636;2022-07-23T08:22:23;27.85;;;14.98;;
64562;SDS011;50961;48.184;11.636;2022-07-23T08:24:48;26.50;;;14.88;;
64562;SDS011;50961;48.184;11.636;2022-07-23T08:27:14;28.55;;;15.25;;
64562;SDS011;50961;48.184;11.636;2022-07-23T08:29:39;27.13;;;14.82;;
64562;SDS011;50961;48.184;11.636;2022-07-23T08:32:04;25.27;;;14.93;;
64562;SDS011;50961;48.184;11.636;2022-07-23T08:34:30;26.52;;;15.57;;
64562;SDS011;50961;48.184;11.636;2022-07-23T08:36:55;27.27;;;14.35;;
64562;SDS011;50961;48.184;11.636;2022-07-23T08:39:21;28.40;;;14.38;;
64562;SDS011;50961;48.184;11.636;2022-07-23T08:41:46;28.33;;;14.27;;
64562;SDS011;50961;48.184;11.636;2022-07-23T08:44:13;24.25;;;14.77;;
64562;SDS011;50961;48.184;11.636;2022-07-23T08:46:41;24.50;;;14.32;;
64562;SDS011;50961;48.184;11.636;2022-07-23T08:49:06;25.60;;;14.77;;
64562;SDS011;50961;48.184;11.636;2022-07-23T08:51:33;24.58;;;14.07;;
64562;SDS011;50961;48.184;11.636;2022-07-23T08:53:59;28.05;;;14.82;;
64562;SDS011;50961;48.184;11.636;2022-07-23T08:56:25;27.80;;;14.63;;
64562;SDS011;50961;48.184;11.636;2022-07-23T08:58:52;22.58;;;14.23;;
64562;SDS011;50961;48.184;11.636;2022-07-23T09:01:18;24.17;;;14.15;;
64562;SDS011;50961;48.184;11.636;2022-07-23T09:03:44;25.00;;;13.90;;
64562;SDS011;50961;48.184;11.636;2022-07-23T09:06:10;24.40;;;13.27;;
64562;SDS011;50961;48.184;11.636;2022-07-23T09:08:36;25.73;;;14.18;;
64562;SDS011;50961;48.184;11.636;2022-07-23T09:11:09;24.65;;;14.52;;
64562;SDS011;50961;48.184;11.636;2022-07-23T09:16:10;24.15;;;14.75;;
64562;SDS011;50961;48.184;11.636;2022-07-23T09:18:48;25.08;;;14.60;;
64562;SDS011;50961;48.184;11.636;2022-07-23T09:21:17;35.28;;;18.55;;
64562;SDS011;50961;48.184;11.636;2022-07-23T09:26:31;22.95;;;14.07;;
64562;SDS011;50961;48.184;11.636;2022-07-23T09:34:21;25.05;;;14.50;;
64562;SDS011;50961;48.184;11.636;2022-07-23T09:36:50;24.58;;;14.68;;
64562;SDS011;50961;48.184;11.636;2022-07-23T09:39:22;25.20;;;13.50;;
64562;SDS011;50961;48.184;11.636;2022-07-23T09:42:20;25.15;;;13.57;;
64562;SDS011;50961;48.184;11.636;2022-07-23T09:44:46;27.63;;;13.95;;
64562;SDS011;50961;48.184;11.636;2022-07-23T09:47:13;27.73;;;14.95;;
64562;SDS011;50961;48.184;11.636;2022-07-23T09:49:39;25.27;;;14.90;;
64562;SDS011;50961;48.184;11.636;2022-07-23T09:52:04;24.90;;;13.70;;
64562;SDS011;50961;48.184;11.636;2022-07-23T09:57:10;24.30;;;14.35;;
64562;SDS011;50961;48.184;11.636;2022-07-23T09:59:41;29.73;;;15.23;;
64562;SDS011;50961;48.184;11.636;2022-07-23T10:02:08;27.27;;;14.43;;
64562;SDS011;50961;48.184;11.636;2022-07-23T10:04:35;30.05;;;14.50;;
64562;SDS011;50961;48.184;11.636;2022-07-23T10:07:02;23.50;;;13.85;;
64562;SDS011;50961;48.184;11.636;2022-07-23T10:09:35;24.08;;;13.70;;
64562;SDS011;50961;48.184;11.636;2022-07-23T10:12:04;22.20;;;13.07;;
64562;SDS011;50961;48.184;11.636;2022-07-23T10:17:06;22.83;;;12.65;;
64562;SDS011;50961;48.184;11.636;2022-07-23T10:19:32;22.58;;;13.48;;
64562;SDS011;50961;48.184;11.636;2022-07-23T10:22:00;21.85;;;12.55;;
64562;SDS011;50961;48.184;11.636;2022-07-23T10:24:34;20.15;;;11.98;;
64562;SDS011;50961;48.184;11.636;2022-07-23T10:27:47;18.35;;;11.85;;
64562;SDS011;50961;48.184;11.636;2022-07-23T10:36:17;24.65;;;12.95;;
64562;SDS011;50961;48.184;11.636;2022-07-23T10:38:56;23.38;;;13.02;;
64562;SDS011;50961;48.184;11.636;2022-07-23T10:41:41;22.52;;;12.60;;
64562;SDS011;50961;48.184;11.636;2022-07-23T10:44:07;22.33;;;12.43;;
64562;SDS011;50961;48.184;11.636;2022-07-23T10:46:34;23.45;;;12.50;;
64562;SDS011;50961;48.184;11.636;2022-07-23T10:49:31;20.95;;;12.50;;
64562;SDS011;50961;48.184;11.636;2022-07-23T10:54:38;23.30;;;12.27;;
64562;SDS011;50961;48.184;11.636;2022-07-23T10:57:08;20.77;;;12.00;;
64562;SDS011;50961;48.184;11.636;2022-07-23T11:02:25;25.92;;;14.25;;
64562;SDS011;50961;48.184;11.636;2022-07-23T11:04:52;21.45;;;12.90;;
64562;SDS011;50961;48.184;11.636;2022-07-23T11:07:19;19.15;;;12.20;;
64562;SDS011;50961;48.184;11.636;2022-07-23T11:09:45;21.88;;;11.77;;
64562;SDS011;50961;48.184;11.636;2022-07-23T11:15:12;20.33;;;11.45;;
64562;SDS011;50961;48.184;11.636;2022-07-23T11:22:39;19.48;;;11.02;;
64562;SDS011;50961;48.184;11.636;2022-07-23T11:25:07;18.65;;;11.05;;
64562;SDS011;50961;48.184;11.636;2022-07-23T11:27:43;18.50;;;10.35;;
64562;SDS011;50961;48.184;11.636;2022-07-23T11:30:11;15.25;;;10.48;;
64562;SDS011;50961;48.184;11.636;2022-07-23T11:35:33;17.40;;;10.55;;
64562;SDS011;50961;48.184;11.636;2022-07-23T11:38:04;19.27;;;11.25;;
64562;SDS011;50961;48.184;11.636;2022-07-23T11:40:31;18.42;;;11.48;;
64562;SDS011;50961;48.184;11.636;2022-07-23T11:43:01;16.40;;;10.60;;
64562;SDS011;50961;48.184;11.636;2022-07-23T11:45:41;16.67;;;10.40;;
64562;SDS011;50961;48.184;11.636;2022-07-23T11:48:09;15.68;;;11.30;;
64562;SDS011;50961;48.184;11.636;2022-07-23T11:50:40;15.95;;;10.30;;
64562;SDS011;50961;48.184;11.636;2022-07-23T11:53:06;18.23;;;11.30;;
64562;SDS011;50961;48.184;11.636;2022-07-23T11:55:32;18.38;;;10.85;;
64562;SDS011;50961;48.184;11.636;2022-07-23T11:57:57;15.98;;;10.93;;
64562;SDS011;50961;48.184;11.636;2022-07-23T12:00:24;16.25;;;10.95;;
64562;SDS011;50961;48.184;11.636;2022-07-23T12:02:52;19.77;;;11.50;;
64562;SDS011;50961;48.184;11.636;2022-07-23T12:05:22;16.10;;;10.77;;
64562;SDS011;50961;48.184;11.636;2022-07-23T12:07:50;19.10;;;11.70;;
64562;SDS011;50961;48.184;11.636;2022-07-23T12:13:01;18.23;;;11.93;;
64562;SDS011;50961;48.184;11.636;2022-07-23T12:15:32;21.52;;;12.45;;
64562;SDS011;50961;48.184;11.636;2022-07-23T12:18:02;18.27;;;11.52;;
64562;SDS011;50961;48.184;11.636;2022-07-23T12:20:30;21.58;;;12.15;;
64562;SDS011;50961;48.184;11.636;2022-07-23T12:23:02;19.13;;;11.50;;
64562;SDS011;50961;48.184;11.636;2022-07-23T12:25:30;18.25;;;11.73;;
64562;SDS011;50961;48.184;11.636;2022-07-23T12:28:13;17.40;;;12.05;;
64562;SDS011;50961;48.184;11.636;2022-07-23T12:30:42;21.35;;;12.20;;
64562;SDS011;50961;48.184;11.636;2022-07-23T12:33:13;18.25;;;11.57;;
64562;SDS011;50961;48.184;11.636;2022-07-23T12:35:44;17.90;;;11.60;;
64562;SDS011;50961;48.184;11.636;2022-07-23T12:38:12;18.48;;;12.93;;
64562;SDS011;50961;48.184;11.636;2022-07-23T12:40:49;22.90;;;13.00;;
64562;SDS011;50961;48.184;11.636;2022-07-23T12:45:54;17.73;;;12.35;;
64562;SDS011;50961;48.184;11.636;2022-07-23T12:48:23;19.17;;;11.82;;
64562;SDS011;50961;48.184;11.636;2022-07-23T12:50:57;18.42;;;11.98;;
64562;SDS011;50961;48.184;11.636;2022-07-23T12:56:11;23.13;;;12.38;;
64562;SDS011;50961;48.184;11.636;2022-07-23T12:58:51;20.95;;;11.82;;
64562;SDS011;50961;48.184;11.636;2022-07-23T13:06:27;20.08;;;11.98;;
64562;SDS011;50961;48.184;11.636;2022-07-23T13:09:12;18.40;;;11.52;;
64562;SDS011;50961;48.184;11.636;2022-07-23T13:11:48;21.17;;;11.82;;
64562;SDS011;50961;48.184;11.636;2022-07-23T13:14:15;16.77;;;11.98;;
64562;SDS011;50961;48.184;11.636;2022-07-23T13:16:42;18.55;;;11.63;;
64562;SDS011;50961;48.184;11.636;2022-07-23T13:19:09;17.92;;;11.88;;
64562;SDS011;50961;48.184;11.636;2022-07-23T13:21:34;19.30;;;12.15;;
64562;SDS011;50961;48.184;11.636;2022-07-23T13:24:00;17.40;;;12.23;;
64562;SDS011;50961;48.184;11.636;2022-07-23T13:26:26;15.82;;;11.70;;
64562;SDS011;50961;48.184;11.636;2022-07-23T13:28:52;16.70;;;11.90;;
64562;SDS011;50961;48.184;11.636;2022-07-23T13:31:17;16.70;;;11.30;;
64562;SDS011;50961;48.184;11.636;2022-07-23T13:33:44;20.48;;;11.80;;
64562;SDS011;50961;48.184;11.636;2022-07-23T13:36:09;18.25;;;12.07;;
64562;SDS011;50961;48.184;11.636;2022-07-23T13:38:35;20.92;;;12.50;;
64562;SDS011;50961;48.184;11.636;2022-07-23T13:41:00;28.38;;;12.93;;
64562;SDS011;50961;48.184;11.636;2022-07-23T13:43:28;19.27;;;11.65;;
64562;SDS011;50961;48.184;11.636;2022-07-23T13:45:53;17.75;;;12.23;;
64562;SDS011;50961;48.184;11.636;2022-07-23T13:48:19;19.55;;;12.65;;
64562;SDS011;50961;48.184;11.636;2022-07-23T13:50:45;20.13;;;13.48;;
64562;SDS011;50961;48.184;11.636;2022-07-23T13:53:14;19.40;;;12.90;;
64562;SDS011;50961;48.184;11.636;2022-07-23T13:55:41;20.35;;;13.10;;
64562;SDS011;50961;48.184;11.636;2022-07-23T13:58:08;18.52;;;12.23;;
64562;SDS011;50961;48.184;11.636;2022-07-23T14:00:34;23.05;;;12.70;;
64562;SDS011;50961;48.184;11.636;2022-07-23T14:03:02;24.48;;;14.07;;
64562;SDS011;50961;48.184;11.636;2022-07-23T14:05:27;23.30;;;13.13;;
64562;SDS011;50961;48.184;11.636;2022-07-23T14:07:53;21.27;;;13.18;;
64562;SDS011;50961;48.184;11.636;2022-07-23T14:10:19;21.95;;;13.85;;
64562;SDS011;50961;48.184;11.636;2022-07-23T14:12:47;21.80;;;13.70;;
64562;SDS011;50961;48.184;11.636;2022-07-23T14:15:14;20.05;;;13.45;;
64562;SDS011;50961;48.184;11.636;2022-07-23T14:17:40;21.60;;;13.45;;
64562;SDS011;50961;48.184;11.636;2022-07-23T14:20:08;23.33;;;13.50;;
64562;SDS011;50961;48.184;11.636;2022-07-23T14:22:34;20.90;;;13.10;;
64562;SDS011;50961;48.184;11.636;2022-07-23T14:24:59;23.92;;;14.13;;
64562;SDS011;50961;48.184;11.636;2022-07-23T14:27:25;21.67;;;14.02;;
64562;SDS011;50961;48.184;11.636;2022-07-23T14:29:52;21.98;;;13.45;;
64562;SDS011;50961;48.184;11.636;2022-07-23T14:32:18;21.80;;;13.05;;
64562;SDS011;50961;48.184;11.636;2022-07-23T14:34:43;21.77;;;13.68;;
64562;SDS011;50961;48.184;11.636;2022-07-23T14:37:09;19.80;;;12.88;;
64562;SDS011;50961;48.184;11.636;2022-07-23T14:39:36;23.38;;;13.85;;
64562;SDS011;50961;48.184;11.636;2022-07-23T14:42:02;20.65;;;12.82;;
64562;SDS011;50961;48.184;11.636;2022-07-23T14:44:28;22.42;;;13.23;;
64562;SDS011;50961;48.184;11.636;2022-07-23T14:46:54;20.95;;;12.70;;
64562;SDS011;50961;48.184;11.636;2022-07-23T14:49:20;20.05;;;12.57;;
64562;SDS011;50961;48.184;11.636;2022-07-23T14:51:45;21.10;;;12.75;;
64562;SDS011;50961;48.184;11.636;2022-07-23T14:54:10;20.90;;;13.57;;
64562;SDS011;50961;48.184;11.636;2022-07-23T14:56:36;21.05;;;12.95;;
64562;SDS011;50961;48.184;11.636;2022-07-23T14:59:03;20.13;;;13.80;;
64562;SDS011;50961;48.184;11.636;2022-07-23T15:01:29;24.08;;;13.40;;